Time;durP1;ratioP1;P1;durP2;ratioP2;P2;SDS_P1;SDS_P2;PMS_P1;PMS_P2;Temp;Humidity;BMP_temperature;BMP_pressure;BME280_temperature;BME280_humidity;BME280_pressure;Samples;Min_cycle;Max_cycle;Signal;HPM_P1;HPM_P2
2020/12/26 00:01:40;;;;;;;4.40;3.25;;;21.30;48.60;;;;;;4959259;29;20102;-47
2020/12/26 00:04:05;;;;;;;4.30;2.83;;;21.30;48.50;;;;;;4959299;29;20077;-47
2020/12/26 00:06:31;;;;;;;4.88;2.80;;;21.30;48.50;;;;;;4958936;29;20406;-47
2020/12/26 00:08:56;;;;;;;5.68;3.10;;;21.20;48.40;;;;;;4958830;29;20035;-46
2020/12/26 00:11:22;;;;;;;5.32;2.70;;;21.20;48.40;;;;;;4958349;28;20051;-48
2020/12/26 00:13:51;;;;;;;7.13;2.70;;;21.20;48.30;;;;;;4958293;29;20031;-48
2020/12/26 00:16:17;;;;;;;5.10;2.65;;;21.10;48.20;;;;;;4958590;29;20373;-48
2020/12/26 00:18:43;;;;;;;4.13;2.40;;;21.20;48.20;;;;;;4958850;29;20122;-50
2020/12/26 00:21:14;;;;;;;5.63;2.65;;;21.10;48.10;;;;;;4959077;29;20050;-50
2020/12/26 00:23:40;;;;;;;4.18;2.60;;;21.10;48.10;;;;;;4959275;29;20090;-46
2020/12/26 00:26:06;;;;;;;4.65;2.83;;;21.10;48.10;;;;;;4959055;29;20413;-49
2020/12/26 00:28:32;;;;;;;3.95;2.58;;;21.10;48.00;;;;;;4958588;29;20039;-51
2020/12/26 00:30:58;;;;;;;6.05;2.28;;;21.00;47.90;;;;;;4958446;29;20136;-52
2020/12/26 00:33:24;;;;;;;5.65;2.85;;;21.00;48.00;;;;;;4958817;29;20047;-53
2020/12/26 00:35:50;;;;;;;4.05;2.28;;;21.00;47.90;;;;;;4958246;29;20046;-48
2020/12/26 00:38:15;;;;;;;3.72;2.47;;;21.00;47.90;;;;;;4958154;29;20027;-46
2020/12/26 00:40:42;;;;;;;5.25;2.78;;;20.90;47.80;;;;;;4958067;29;20047;-52
2020/12/26 00:43:08;;;;;;;6.25;2.55;;;20.90;47.70;;;;;;4958047;29;20032;-47
2020/12/26 00:45:33;;;;;;;4.30;2.35;;;20.90;47.70;;;;;;4958282;29;20110;-47
2020/12/26 00:47:59;;;;;;;4.88;2.58;;;20.90;47.60;;;;;;4958173;29;20536;-47
2020/12/26 00:50:25;;;;;;;3.92;2.50;;;20.90;47.60;;;;;;4958397;29;20051;-54
2020/12/26 00:52:50;;;;;;;4.25;2.67;;;20.90;47.50;;;;;;4957824;29;20090;-49
2020/12/26 00:55:16;;;;;;;5.55;2.55;;;20.80;47.40;;;;;;4957894;29;20043;-49
2020/12/26 00:57:44;;;;;;;4.50;2.78;;;20.90;47.40;;;;;;4958128;29;20035;-49
2020/12/26 01:00:10;;;;;;;3.83;2.05;;;20.80;47.40;;;;;;4958122;29;20111;-53
2020/12/26 01:02:35;;;;;;;4.40;2.10;;;20.80;47.40;;;;;;4958222;29;20111;-52
2020/12/26 01:05:02;;;;;;;2.60;2.13;;;20.80;47.40;;;;;;4957628;29;20478;-48
2020/12/26 01:07:28;;;;;;;3.88;1.98;;;20.70;47.30;;;;;;4958376;29;20347;-47
2020/12/26 01:09:53;;;;;;;4.43;2.65;;;20.70;47.30;;;;;;4957803;29;20042;-50
2020/12/26 01:12:18;;;;;;;3.30;2.17;;;20.70;47.30;;;;;;4957745;29;20043;-46
2020/12/26 01:14:44;;;;;;;2.33;1.65;;;20.70;47.20;;;;;;4958640;29;20043;-48
2020/12/26 01:17:11;;;;;;;4.45;2.60;;;20.70;47.20;;;;;;4957757;29;20031;-51
2020/12/26 01:19:37;;;;;;;3.45;2.13;;;20.70;47.20;;;;;;4957641;29;20035;-49
2020/12/26 01:22:02;;;;;;;3.05;2.25;;;20.70;47.20;;;;;;4957278;29;20035;-47
2020/12/26 01:24:28;;;;;;;4.57;2.28;;;20.70;47.10;;;;;;4957450;28;20050;-47
2020/12/26 01:26:53;;;;;;;4.95;2.15;;;20.60;47.10;;;;;;4958040;29;20035;-48
2020/12/26 01:29:19;;;;;;;3.10;2.17;;;20.60;47.00;;;;;;4957271;29;20045;-51
2020/12/26 01:31:53;;;;;;;4.25;2.75;;;20.60;47.00;;;;;;4957481;29;20059;-47
2020/12/26 01:34:20;;;;;;;4.72;2.42;;;20.60;47.00;;;;;;4956968;29;20335;-47
2020/12/26 01:36:55;;;;;;;3.53;1.75;;;20.60;47.00;;;;;;4957368;29;20044;-47
2020/12/26 01:39:22;;;;;;;4.22;1.85;;;20.60;46.90;;;;;;4957311;29;20414;-48
2020/12/26 01:41:52;;;;;;;2.10;1.70;;;20.50;46.80;;;;;;4957368;29;20446;-47
2020/12/26 01:44:19;;;;;;;3.08;2.00;;;20.50;46.80;;;;;;4956989;29;20517;-47
2020/12/26 01:46:47;;;;;;;1.98;1.40;;;20.50;46.80;;;;;;4957404;29;20035;-52
2020/12/26 01:49:14;;;;;;;2.97;1.95;;;20.50;46.80;;;;;;4957243;29;20193;-49
2020/12/26 01:51:40;;;;;;;2.38;2.05;;;20.50;46.80;;;;;;4957392;29;20054;-48
2020/12/26 01:54:06;;;;;;;2.55;1.95;;;20.50;46.80;;;;;;4957160;29;20105;-46
2020/12/26 01:56:32;;;;;;;3.03;1.77;;;20.40;47.40;;;;;;4957117;29;20047;-48
2020/12/26 01:58:57;;;;;;;3.33;2.00;;;20.40;46.70;;;;;;4957126;29;20046;-49
2020/12/26 02:01:40;;;;;;;2.60;2.13;;;20.40;46.70;;;;;;4956897;29;20039;-47
2020/12/26 02:04:07;;;;;;;3.95;2.20;;;20.40;46.70;;;;;;4956858;29;20039;-49
2020/12/26 02:06:36;;;;;;;4.50;1.98;;;20.40;46.70;;;;;;4957397;29;20073;-49
2020/12/26 02:09:04;;;;;;;4.70;2.40;;;20.40;46.70;;;;;;4957246;29;20031;-47
2020/12/26 02:11:30;;;;;;;3.70;2.08;;;20.40;46.70;;;;;;4957018;29;20075;-49
2020/12/26 02:13:56;;;;;;;4.18;2.08;;;20.30;46.60;;;;;;4956854;29;20074;-49
2020/12/26 02:16:22;;;;;;;2.83;2.05;;;20.30;46.50;;;;;;4956726;29;20450;-46
2020/12/26 02:18:48;;;;;;;3.25;1.70;;;20.30;46.50;;;;;;4956857;29;20054;-47
2020/12/26 02:21:13;;;;;;;2.92;1.60;;;20.30;46.50;;;;;;4956933;29;20054;-52
2020/12/26 02:23:44;;;;;;;3.10;1.80;;;20.30;46.50;;;;;;4956807;29;20033;-54
2020/12/26 02:26:09;;;;;;;2.33;1.63;;;20.30;46.50;;;;;;4956861;29;20102;-47
2020/12/26 02:28:35;;;;;;;2.63;1.85;;;20.30;46.50;;;;;;4956608;29;20091;-47
2020/12/26 02:31:00;;;;;;;3.42;1.85;;;20.30;46.50;;;;;;4956675;29;20480;-47
2020/12/26 02:33:26;;;;;;;2.97;1.65;;;20.20;46.40;;;;;;4956923;29;20055;-48
2020/12/26 02:35:51;;;;;;;3.30;1.95;;;20.20;46.40;;;;;;4957840;28;20039;-49
2020/12/26 02:38:18;;;;;;;2.90;1.58;;;20.30;46.50;;;;;;4960492;29;20066;-49
2020/12/26 02:40:47;;;;;;;2.92;1.95;;;20.20;46.40;;;;;;4960831;29;20038;-49
2020/12/26 02:43:21;;;;;;;2.97;1.90;;;20.20;46.30;;;;;;4960686;29;20031;-51
2020/12/26 02:45:48;;;;;;;3.38;1.60;;;20.20;46.40;;;;;;4960313;29;20506;-47
2020/12/26 02:48:13;;;;;;;3.65;1.92;;;20.20;46.40;;;;;;4960575;29;20123;-48
2020/12/26 02:50:39;;;;;;;2.22;1.50;;;20.10;46.30;;;;;;4960390;29;20067;-46
2020/12/26 02:53:04;;;;;;;3.65;1.50;;;20.10;46.40;;;;;;4960456;29;20122;-49
2020/12/26 02:55:30;;;;;;;3.10;1.88;;;20.10;46.30;;;;;;4960658;29;20046;-47
2020/12/26 02:57:55;;;;;;;2.42;2.03;;;20.10;46.30;;;;;;4960417;29;20082;-47
2020/12/26 03:00:21;;;;;;;2.38;1.70;;;20.10;46.30;;;;;;4959986;29;20350;-46
2020/12/26 03:02:46;;;;;;;3.55;1.83;;;20.10;46.30;;;;;;4959963;29;20377;-47
2020/12/26 03:05:12;;;;;;;2.13;1.90;;;20.10;46.30;;;;;;4960191;29;20358;-45
2020/12/26 03:07:37;;;;;;;3.45;1.50;;;20.10;46.20;;;;;;4960356;29;20409;-50
2020/12/26 03:10:04;;;;;;;3.08;1.45;;;20.10;46.10;;;;;;4960078;29;20035;-49
2020/12/26 03:12:29;;;;;;;2.58;1.63;;;20.00;46.10;;;;;;4959785;29;20070;-45
2020/12/26 03:14:55;;;;;;;4.05;1.40;;;20.00;46.10;;;;;;4959893;29;20110;-46
2020/12/26 03:17:20;;;;;;;2.40;1.50;;;20.00;46.00;;;;;;4960105;29;20362;-46
2020/12/26 03:19:46;;;;;;;2.40;1.70;;;20.00;46.00;;;;;;4960049;29;20047;-46
2020/12/26 03:22:11;;;;;;;3.75;1.67;;;20.00;46.00;;;;;;4959987;29;20183;-45
2020/12/26 03:24:37;;;;;;;2.65;1.80;;;20.00;46.10;;;;;;4959688;29;20035;-53
2020/12/26 03:27:02;;;;;;;2.22;1.50;;;20.00;46.00;;;;;;4959837;29;20035;-52
2020/12/26 03:29:28;;;;;;;2.80;1.60;;;20.00;46.00;;;;;;4959737;29;20070;-52
2020/12/26 03:31:53;;;;;;;2.92;1.58;;;20.00;46.00;;;;;;4959319;29;20462;-53
2020/12/26 03:34:19;;;;;;;2.85;1.77;;;20.00;46.00;;;;;;4959588;29;20049;-52
2020/12/26 03:36:44;;;;;;;3.95;1.73;;;19.90;46.00;;;;;;4959710;29;20046;-49
2020/12/26 03:39:10;;;;;;;2.63;1.85;;;19.90;45.90;;;;;;4959838;29;20426;-49
2020/12/26 03:41:35;;;;;;;2.40;1.50;;;19.90;46.00;;;;;;4959810;29;20039;-54
2020/12/26 03:44:01;;;;;;;2.20;1.60;;;20.00;46.10;;;;;;4959297;29;20090;-50
2020/12/26 03:46:26;;;;;;;2.78;1.60;;;19.90;46.00;;;;;;4959225;28;20043;-52
2020/12/26 03:48:51;;;;;;;2.50;1.63;;;19.90;46.10;;;;;;4959401;29;20103;-50
2020/12/26 03:51:17;;;;;;;1.65;1.45;;;19.80;46.00;;;;;;4959017;29;20047;-47
2020/12/26 03:53:42;;;;;;;2.40;1.85;;;19.80;46.00;;;;;;4958799;29;20046;-49
2020/12/26 03:56:14;;;;;;;2.88;1.75;;;19.80;46.00;;;;;;4959110;29;20031;-53
2020/12/26 03:58:40;;;;;;;3.80;1.50;;;19.80;46.00;;;;;;4959158;29;20039;-51
2020/12/26 04:01:05;;;;;;;2.90;1.77;;;19.80;46.00;;;;;;4958998;29;20035;-54
2020/12/26 04:03:31;;;;;;;2.63;1.70;;;19.80;46.00;;;;;;4959446;29;20509;-54
2020/12/26 04:05:57;;;;;;;2.53;1.67;;;19.80;46.00;;;;;;4958401;29;20035;-54
2020/12/26 04:08:22;;;;;;;2.90;1.67;;;19.80;46.00;;;;;;4959293;29;20035;-52
2020/12/26 04:10:48;;;;;;;1.75;1.38;;;19.80;46.00;;;;;;4959049;29;20122;-49
2020/12/26 04:13:13;;;;;;;2.55;1.50;;;19.80;46.10;;;;;;4958843;29;20039;-53
2020/12/26 04:15:39;;;;;;;2.22;1.40;;;19.80;46.10;;;;;;4958874;29;20119;-46
2020/12/26 04:18:04;;;;;;;1.65;1.27;;;19.80;46.10;;;;;;4958775;29;20378;-52
2020/12/26 04:20:29;;;;;;;2.50;1.48;;;19.70;46.00;;;;;;4958728;29;20051;-52
2020/12/26 04:22:55;;;;;;;2.15;1.55;;;19.80;46.10;;;;;;4958802;29;20039;-52
2020/12/26 04:25:20;;;;;;;2.05;1.45;;;19.70;46.00;;;;;;4958362;29;20060;-50
2020/12/26 04:27:46;;;;;;;2.65;1.50;;;19.70;46.00;;;;;;4958580;29;20434;-53
2020/12/26 04:30:12;;;;;;;3.55;1.33;;;19.70;46.00;;;;;;4958445;29;20028;-52
2020/12/26 04:32:38;;;;;;;3.20;2.00;;;19.70;46.00;;;;;;4958794;29;20109;-52
2020/12/26 04:35:03;;;;;;;1.27;1.17;;;19.70;45.90;;;;;;4958547;29;20065;-49
2020/12/26 04:37:29;;;;;;;2.55;1.48;;;19.70;46.00;;;;;;4958741;29;20035;-52
2020/12/26 04:39:54;;;;;;;2.65;1.52;;;19.70;45.90;;;;;;4958420;29;20477;-52
2020/12/26 04:42:21;;;;;;;2.35;1.30;;;19.60;45.80;;;;;;4958359;29;20043;-53
2020/12/26 04:44:48;;;;;;;2.72;1.48;;;19.70;45.90;;;;;;4958316;29;20043;-50
2020/12/26 04:47:14;;;;;;;1.70;1.15;;;19.60;45.80;;;;;;4958421;29;20367;-52
2020/12/26 04:49:40;;;;;;;1.50;1.15;;;19.60;45.80;;;;;;4958380;29;20031;-54
2020/12/26 04:52:09;;;;;;;1.40;1.10;;;19.60;45.80;;;;;;4958366;29;20367;-54
2020/12/26 04:54:41;;;;;;;2.15;1.40;;;19.60;45.80;;;;;;4958119;29;20062;-52
2020/12/26 04:57:08;;;;;;;2.25;1.02;;;19.60;45.80;;;;;;4957814;29;20432;-52
2020/12/26 04:59:34;;;;;;;3.33;1.33;;;19.60;45.80;;;;;;4957168;28;20043;-54
2020/12/26 05:02:01;;;;;;;2.28;1.48;;;19.60;45.80;;;;;;4958080;29;20035;-49
2020/12/26 05:04:26;;;;;;;2.08;1.20;;;19.60;45.80;;;;;;4957905;29;20112;-52
2020/12/26 05:06:53;;;;;;;3.17;1.23;;;19.50;45.70;;;;;;4958122;29;20035;-52
2020/12/26 05:09:20;;;;;;;1.70;1.13;;;19.50;45.70;;;;;;4957744;29;20027;-50
2020/12/26 05:11:51;;;;;;;2.38;1.05;;;19.50;45.70;;;;;;4957741;29;20055;-51
2020/12/26 05:14:17;;;;;;;1.45;1.10;;;19.50;45.70;;;;;;4957528;29;20056;-51
2020/12/26 05:16:43;;;;;;;1.20;1.10;;;19.50;45.70;;;;;;4957988;29;20063;-53
2020/12/26 05:19:09;;;;;;;2.60;1.30;;;19.50;45.70;;;;;;4957781;29;20035;-53
2020/12/26 05:21:35;;;;;;;2.70;0.95;;;19.50;45.70;;;;;;4957699;29;20113;-51
2020/12/26 05:24:05;;;;;;;1.48;0.95;;;19.50;45.70;;;;;;4957781;29;20140;-54
2020/12/26 05:26:37;;;;;;;1.63;0.95;;;19.40;45.60;;;;;;4957623;29;20045;-54
2020/12/26 05:29:03;;;;;;;2.83;1.10;;;19.40;45.50;;;;;;4957660;29;20039;-51
2020/12/26 05:31:42;;;;;;;1.38;0.90;;;19.40;45.50;;;;;;4957321;29;20035;-50
2020/12/26 05:34:08;;;;;;;2.85;0.98;;;19.40;45.50;;;;;;4957429;29;20055;-54
2020/12/26 05:36:34;;;;;;;1.60;1.08;;;19.40;45.50;;;;;;4957425;29;20046;-53
2020/12/26 05:38:59;;;;;;;1.23;0.90;;;19.40;45.50;;;;;;4957102;29;20039;-50
2020/12/26 05:41:25;;;;;;;1.95;1.02;;;19.40;45.50;;;;;;4957366;29;20063;-54
2020/12/26 05:43:51;;;;;;;1.20;0.70;;;19.40;45.40;;;;;;4957402;29;20046;-54
2020/12/26 05:46:17;;;;;;;1.10;0.90;;;19.40;45.50;;;;;;4957435;29;20042;-53
2020/12/26 05:48:42;;;;;;;1.02;0.98;;;19.30;45.30;;;;;;4957492;29;20031;-52
2020/12/26 05:51:08;;;;;;;1.20;0.90;;;19.40;45.30;;;;;;4957003;29;20109;-51
2020/12/26 05:53:35;;;;;;;1.67;1.15;;;19.30;45.20;;;;;;4957226;29;20426;-53
2020/12/26 05:56:00;;;;;;;2.22;1.10;;;19.30;45.20;;;;;;4957082;29;20042;-53
2020/12/26 05:58:26;;;;;;;1.27;0.70;;;19.30;45.20;;;;;;4957145;29;20043;-53
2020/12/26 06:00:52;;;;;;;2.80;1.02;;;19.30;45.30;;;;;;4957198;29;20028;-53
2020/12/26 06:03:24;;;;;;;0.93;0.73;;;19.30;45.30;;;;;;4957390;29;20070;-52
2020/12/26 06:05:53;;;;;;;1.80;1.00;;;19.30;45.30;;;;;;4957017;29;20043;-54
2020/12/26 06:08:20;;;;;;;1.20;0.95;;;19.20;45.20;;;;;;4956975;29;20071;-51
2020/12/26 06:11:03;;;;;;;1.50;1.00;;;19.20;45.20;;;;;;4957078;28;20031;-52
2020/12/26 06:13:31;;;;;;;1.50;1.02;;;19.20;45.20;;;;;;4957031;29;20040;-51
2020/12/26 06:16:10;;;;;;;1.80;1.15;;;19.20;45.40;;;;;;4956698;29;20046;-53
2020/12/26 06:18:40;;;;;;;1.85;1.30;;;19.20;45.30;;;;;;4956572;29;20415;-51
2020/12/26 06:21:07;;;;;;;0.93;0.75;;;19.20;45.30;;;;;;4956967;29;20042;-52
2020/12/26 06:23:37;;;;;;;1.67;0.90;;;19.20;45.30;;;;;;4956912;29;20035;-51
2020/12/26 06:26:03;;;;;;;1.25;1.00;;;19.20;45.20;;;;;;4956795;29;20091;-52
2020/12/26 06:28:31;;;;;;;1.10;0.70;;;19.20;45.10;;;;;;4956459;29;20042;-52
2020/12/26 06:31:09;;;;;;;2.60;1.00;;;19.20;45.10;;;;;;4956550;29;20081;-50
2020/12/26 06:33:39;;;;;;;2.15;0.98;;;19.20;45.10;;;;;;4957061;29;20466;-48
2020/12/26 06:36:05;;;;;;;1.60;1.00;;;19.20;45.00;;;;;;4956703;29;20113;-49
2020/12/26 06:38:31;;;;;;;1.48;0.82;;;19.10;45.00;;;;;;4956898;29;20054;-52
2020/12/26 06:41:05;;;;;;;2.08;0.93;;;19.10;45.00;;;;;;4956661;29;20091;-47
2020/12/26 06:43:49;;;;;;;1.00;0.90;;;19.10;45.00;;;;;;4956659;29;20046;-49
2020/12/26 06:46:21;;;;;;;1.90;0.90;;;19.10;45.00;;;;;;4956754;29;20035;-49
2020/12/26 06:48:50;;;;;;;2.28;0.98;;;19.10;45.00;;;;;;4956730;29;20074;-46
2020/12/26 06:51:22;;;;;;;2.17;1.00;;;19.10;45.10;;;;;;4939644;29;20343;-49
2020/12/26 06:53:47;;;;;;;0.88;0.70;;;19.00;45.10;;;;;;4956557;29;20522;-50
2020/12/26 06:56:32;;;;;;;2.28;1.00;;;19.10;45.10;;;;;;4956615;29;20035;-47
2020/12/26 06:58:58;;;;;;;2.47;0.90;;;19.10;45.10;;;;;;4956459;29;20501;-46
2020/12/26 07:01:24;;;;;;;1.02;0.90;;;19.00;45.00;;;;;;4956514;29;20043;-46
2020/12/26 07:04:10;;;;;;;1.17;0.98;;;19.00;45.20;;;;;;4956162;29;20031;-49
2020/12/26 07:06:55;;;;;;;1.48;1.00;;;19.00;45.10;;;;;;4956236;29;20035;-47
2020/12/26 07:09:41;;;;;;;1.98;1.13;;;19.00;45.10;;;;;;4956723;29;20086;-50
2020/12/26 07:12:08;;;;;;;1.67;0.90;;;19.00;45.00;;;;;;4956070;29;20043;-47
2020/12/26 07:14:52;;;;;;;1.08;0.98;;;19.00;45.00;;;;;;4956178;29;20031;-47
2020/12/26 07:17:20;;;;;;;1.42;1.10;;;19.00;44.90;;;;;;4956278;29;20050;-48
2020/12/26 07:19:53;;;;;;;3.08;1.00;;;19.00;44.90;;;;;;4956285;29;20454;-47
2020/12/26 07:22:24;;;;;;;1.13;0.80;;;18.90;45.60;;;;;;4958285;28;20035;-48
2020/12/26 07:25:05;;;;;;;1.38;1.00;;;18.90;44.80;;;;;;4959716;29;20450;-48
2020/12/26 07:27:32;;;;;;;1.15;0.73;;;19.00;44.90;;;;;;4960141;29;20035;-48
2020/12/26 07:30:05;;;;;;;1.55;0.90;;;19.00;44.90;;;;;;4959812;29;20406;-49
2020/12/26 07:32:40;;;;;;;1.33;0.77;;;18.90;44.80;;;;;;4959661;29;20051;-52
2020/12/26 07:35:06;;;;;;;2.00;1.10;;;18.90;44.80;;;;;;4959982;29;20035;-52
2020/12/26 07:37:32;;;;;;;1.10;1.00;;;18.90;44.80;;;;;;4959125;29;20454;-47
2020/12/26 07:39:58;;;;;;;1.23;1.10;;;18.90;44.80;;;;;;4959344;29;20462;-49
2020/12/26 07:42:25;;;;;;;2.22;1.00;;;18.90;44.80;;;;;;4959766;29;20054;-47
2020/12/26 07:44:51;;;;;;;1.05;0.80;;;18.90;44.90;;;;;;4959557;29;20395;-47
2020/12/26 07:47:16;;;;;;;1.50;0.80;;;18.90;44.90;;;;;;4959555;29;20157;-45
2020/12/26 07:49:42;;;;;;;2.22;0.90;;;18.90;44.90;;;;;;4959242;29;20035;-48
2020/12/26 07:52:09;;;;;;;2.50;1.10;;;18.90;45.00;;;;;;4959102;29;20062;-47
2020/12/26 07:54:35;;;;;;;2.45;1.02;;;18.90;45.10;;;;;;4959349;29;20035;-47
2020/12/26 07:57:01;;;;;;;1.90;1.02;;;18.80;45.30;;;;;;4959215;29;20031;-48
2020/12/26 07:59:27;;;;;;;1.88;1.00;;;18.80;45.50;;;;;;4959209;29;20489;-49
2020/12/26 08:01:54;;;;;;;1.17;0.73;;;18.90;45.70;;;;;;4958842;29;20039;-47
2020/12/26 08:04:20;;;;;;;1.17;1.08;;;18.90;45.80;;;;;;4959399;29;20035;-53
2020/12/26 08:06:47;;;;;;;1.58;0.98;;;18.90;46.00;;;;;;4959306;29;20351;-48
2020/12/26 08:09:13;;;;;;;3.78;1.20;;;19.00;46.30;;;;;;4958972;29;20035;-48
2020/12/26 08:11:40;;;;;;;2.17;0.98;;;19.00;46.30;;;;;;4958604;29;20039;-48
2020/12/26 08:14:06;;;;;;;2.22;1.10;;;19.00;46.30;;;;;;4959042;29;20039;-50
2020/12/26 08:16:32;;;;;;;5.28;1.27;;;19.00;46.20;;;;;;4959105;29;20370;-59
2020/12/26 08:19:00;;;;;;;0.98;0.80;;;19.10;46.30;;;;;;4958715;29;20118;-48
2020/12/26 08:21:26;;;;;;;3.42;0.80;;;19.10;46.30;;;;;;4958815;29;20117;-48
2020/12/26 08:24:02;;;;;;;6.57;1.08;;;19.10;46.30;;;;;;4959191;29;20414;-48
2020/12/26 08:26:29;;;;;;;2.00;0.73;;;19.10;46.40;;;;;;4956829;29;20031;-49
2020/12/26 08:29:00;;;;;;;2.47;1.00;;;19.20;46.50;;;;;;4958930;29;20035;-49
2020/12/26 08:31:27;;;;;;;5.72;1.10;;;19.20;46.50;;;;;;4959587;29;20086;-51
2020/12/26 08:34:37;;;;;;;2.97;1.35;;;19.30;46.70;;;;;;4957088;28;20051;-49
2020/12/26 08:37:11;;;;;;;1.38;0.90;;;19.30;46.70;;;;;;4898608;29;20392;-49
2020/12/26 08:39:37;;;;;;;2.67;1.02;;;19.40;46.70;;;;;;4952766;29;20067;-51
2020/12/26 08:42:06;;;;;;;1.10;0.75;;;19.40;46.80;;;;;;4958920;29;20082;-47
2020/12/26 08:44:32;;;;;;;0.65;0.60;;;19.50;46.80;;;;;;4958397;29;20032;-48
2020/12/26 08:46:57;;;;;;;1.15;0.80;;;19.50;46.80;;;;;;4958235;29;20085;-50
2020/12/26 08:49:23;;;;;;;3.33;1.08;;;19.50;46.80;;;;;;4958067;29;20434;-48
2020/12/26 08:51:48;;;;;;;1.75;0.70;;;19.60;46.80;;;;;;4958333;29;20050;-48
2020/12/26 08:54:23;;;;;;;3.70;0.93;;;19.60;46.80;;;;;;4958457;29;20101;-47
2020/12/26 08:56:49;;;;;;;3.17;0.80;;;19.60;46.80;;;;;;4958051;29;20031;-46
2020/12/26 08:59:27;;;;;;;3.20;1.00;;;19.60;46.80;;;;;;4956378;29;20038;-48
2020/12/26 09:01:54;;;;;;;3.75;2.00;;;19.70;46.80;;;;;;4957916;29;20035;-47
2020/12/26 09:04:20;;;;;;;5.50;1.38;;;19.70;46.50;;;;;;4958116;29;20039;-46
2020/12/26 09:06:45;;;;;;;6.68;1.15;;;19.70;46.60;;;;;;4957970;29;20036;-47
2020/12/26 09:09:18;;;;;;;5.63;1.10;;;19.70;46.70;;;;;;4957930;29;20102;-47
2020/12/26 09:11:45;;;;;;;3.15;1.40;;;19.70;46.70;;;;;;4957661;29;20046;-51
2020/12/26 09:14:18;;;;;;;3.72;1.13;;;19.70;46.70;;;;;;4957596;29;20035;-47
2020/12/26 09:16:44;;;;;;;3.65;1.35;;;19.80;46.80;;;;;;4957810;29;20050;-54
2020/12/26 09:19:10;;;;;;;5.82;1.67;;;19.80;46.80;;;;;;4957456;29;20442;-47
2020/12/26 09:21:35;;;;;;;2.85;1.48;;;19.80;46.40;;;;;;4957201;29;20039;-45
2020/12/26 09:24:01;;;;;;;4.50;1.42;;;19.80;46.50;;;;;;4957947;29;20039;-47
2020/12/26 09:26:28;;;;;;;8.93;2.08;;;19.80;46.70;;;;;;4957701;29;20458;-51
2020/12/26 09:28:58;;;;;;;5.45;1.42;;;19.70;44.80;;;;;;4958010;29;20035;-46
2020/12/26 09:31:35;;;;;;;8.90;1.52;;;19.70;45.40;;;;;;4957659;29;20042;-53
2020/12/26 09:34:22;;;;;;;4.32;1.65;;;19.70;45.80;;;;;;4957489;29;20135;-48
2020/12/26 09:37:00;;;;;;;4.78;1.63;;;19.70;45.80;;;;;;4956756;29;20035;-51
2020/12/26 09:39:26;;;;;;;6.43;1.50;;;19.70;45.80;;;;;;4957665;29;20031;-46
2020/12/26 09:41:51;;;;;;;2.60;1.10;;;19.70;46.00;;;;;;4957126;29;20050;-46
2020/12/26 09:44:17;;;;;;;4.57;1.33;;;19.70;46.00;;;;;;4956819;28;20042;-49
2020/12/26 09:46:43;;;;;;;4.72;1.60;;;19.70;46.10;;;;;;4957479;29;20036;-45
2020/12/26 09:49:09;;;;;;;3.50;1.27;;;19.80;46.30;;;;;;4957551;29;20031;-46
2020/12/26 09:51:35;;;;;;;4.38;1.15;;;19.80;46.30;;;;;;4956909;29;20201;-48
2020/12/26 09:54:01;;;;;;;2.33;1.13;;;19.80;46.30;;;;;;4956882;29;20521;-47
2020/12/26 09:56:27;;;;;;;2.83;1.08;;;19.80;46.30;;;;;;4957404;29;20035;-49
2020/12/26 09:58:53;;;;;;;2.50;0.93;;;19.80;46.30;;;;;;4957093;29;20109;-46
2020/12/26 10:01:20;;;;;;;1.25;1.05;;;19.80;46.30;;;;;;4957100;29;20037;-45
2020/12/26 10:03:47;;;;;;;1.92;0.90;;;19.80;46.30;;;;;;4957104;29;20031;-45
2020/12/26 10:06:14;;;;;;;5.53;1.02;;;19.80;46.30;;;;;;4956885;29;20071;-47
2020/12/26 10:08:40;;;;;;;2.67;1.15;;;19.80;46.20;;;;;;4956917;29;20050;-47
2020/12/26 10:11:06;;;;;;;3.08;0.93;;;19.80;46.20;;;;;;4957427;29;20058;-49
2020/12/26 10:13:31;;;;;;;4.50;1.00;;;19.90;46.30;;;;;;4956897;29;20458;-48
2020/12/26 10:15:57;;;;;;;2.33;0.93;;;19.90;46.10;;;;;;4957102;29;20035;-47
2020/12/26 10:18:22;;;;;;;2.50;1.30;;;19.90;46.10;;;;;;4956705;29;20395;-46
2020/12/26 10:20:48;;;;;;;2.05;1.17;;;19.90;46.10;;;;;;4956656;29;20111;-48
2020/12/26 10:23:13;;;;;;;4.95;1.00;;;19.90;46.00;;;;;;4957168;29;20039;-47
2020/12/26 10:25:39;;;;;;;2.22;0.77;;;19.90;46.00;;;;;;4956923;29;20458;-46
2020/12/26 10:28:04;;;;;;;1.95;1.08;;;19.90;46.00;;;;;;4957465;29;20362;-45
2020/12/26 10:30:30;;;;;;;2.35;0.90;;;19.90;45.90;;;;;;4956563;29;20046;-47
2020/12/26 10:32:56;;;;;;;1.85;1.00;;;19.90;45.90;;;;;;4956607;29;20055;-48
2020/12/26 10:35:21;;;;;;;0.93;0.90;;;20.00;45.90;;;;;;4956616;29;20430;-46
2020/12/26 10:37:47;;;;;;;2.85;1.20;;;19.90;45.80;;;;;;4956937;29;20114;-46
2020/12/26 10:40:13;;;;;;;3.22;1.00;;;19.90;45.80;;;;;;4956748;29;20469;-45
2020/12/26 10:42:38;;;;;;;2.75;0.98;;;19.90;45.80;;;;;;4956659;29;20128;-46
2020/12/26 10:45:04;;;;;;;1.02;0.65;;;19.90;45.70;;;;;;4957450;29;20543;-47
2020/12/26 10:47:30;;;;;;;1.55;0.75;;;19.90;45.70;;;;;;4957080;29;20042;-49
2020/12/26 10:49:55;;;;;;;3.80;0.80;;;19.90;45.70;;;;;;4956408;29;20101;-45
2020/12/26 10:52:21;;;;;;;3.25;1.00;;;19.80;45.60;;;;;;4956803;29;20051;-46
2020/12/26 10:54:46;;;;;;;1.10;0.50;;;19.90;45.70;;;;;;4956929;29;20361;-46
2020/12/26 10:57:12;;;;;;;2.13;1.05;;;19.90;45.60;;;;;;4958122;28;20366;-46
2020/12/26 10:59:37;;;;;;;1.50;0.70;;;19.80;45.50;;;;;;4960448;29;20031;-46
2020/12/26 11:02:03;;;;;;;1.70;0.77;;;19.80;45.50;;;;;;4960391;29;20103;-45
2020/12/26 11:04:29;;;;;;;0.68;0.60;;;19.80;45.50;;;;;;4960123;29;20102;-46
2020/12/26 11:06:54;;;;;;;3.35;0.93;;;19.80;45.40;;;;;;4959898;29;20040;-45
2020/12/26 11:09:20;;;;;;;1.98;0.90;;;19.80;45.40;;;;;;4959793;29;20039;-45
2020/12/26 11:11:50;;;;;;;1.50;0.80;;;19.80;45.40;;;;;;4960053;29;20075;-46
2020/12/26 11:14:16;;;;;;;2.10;0.75;;;19.80;45.30;;;;;;4959833;29;20053;-48
2020/12/26 11:16:49;;;;;;;1.15;0.70;;;19.80;45.30;;;;;;4960267;29;20078;-46
2020/12/26 11:19:15;;;;;;;1.70;0.80;;;19.80;45.20;;;;;;4959860;29;20358;-45
2020/12/26 11:21:41;;;;;;;1.02;0.70;;;19.80;45.20;;;;;;4959766;29;20094;-47
2020/12/26 11:24:07;;;;;;;0.90;0.70;;;19.80;45.20;;;;;;4959985;29;20039;-47
2020/12/26 11:26:32;;;;;;;2.30;0.75;;;19.80;45.10;;;;;;4959986;29;20036;-45
2020/12/26 11:28:58;;;;;;;1.38;0.80;;;19.80;45.10;;;;;;4959918;29;20042;-47
2020/12/26 11:31:25;;;;;;;1.67;0.75;;;19.80;45.00;;;;;;4959757;29;20046;-47
2020/12/26 11:33:51;;;;;;;2.25;0.98;;;19.80;44.90;;;;;;4959763;29;20074;-46
2020/12/26 11:36:24;;;;;;;2.15;1.10;;;19.70;44.80;;;;;;4959870;29;20171;-46
2020/12/26 11:38:51;;;;;;;0.95;0.63;;;19.70;44.80;;;;;;4959689;29;20039;-45
2020/12/26 11:41:35;;;;;;;2.20;0.90;;;19.70;44.80;;;;;;4960014;29;20035;-44
2020/12/26 11:44:01;;;;;;;2.45;1.10;;;19.70;44.70;;;;;;4959401;29;20090;-50
2020/12/26 11:46:26;;;;;;;1.98;0.98;;;19.70;44.70;;;;;;4959437;29;20040;-47
2020/12/26 11:48:52;;;;;;;2.15;0.95;;;19.70;44.70;;;;;;4959536;29;20070;-46
2020/12/26 11:51:17;;;;;;;1.25;0.77;;;19.70;44.60;;;;;;4959582;29;20043;-46
2020/12/26 11:53:43;;;;;;;1.08;0.82;;;19.70;44.60;;;;;;4959279;29;20124;-45
2020/12/26 11:56:11;;;;;;;1.85;0.90;;;19.70;44.60;;;;;;4959526;29;20070;-44
2020/12/26 11:58:37;;;;;;;2.95;1.20;;;19.70;44.60;;;;;;4959150;29;20086;-44
2020/12/26 12:01:04;;;;;;;2.97;1.30;;;19.60;44.50;;;;;;4959095;29;20051;-46
2020/12/26 12:03:29;;;;;;;1.50;1.08;;;19.60;44.60;;;;;;4959607;29;20035;-46
2020/12/26 12:05:55;;;;;;;1.70;1.20;;;19.60;44.60;;;;;;4959204;29;20036;-47
2020/12/26 12:08:21;;;;;;;2.10;1.23;;;19.60;44.50;;;;;;4958817;28;20118;-46
2020/12/26 12:10:46;;;;;;;2.03;1.10;;;19.60;44.50;;;;;;4959113;29;20066;-45
2020/12/26 12:13:12;;;;;;;3.13;1.45;;;19.60;44.50;;;;;;4959162;29;20054;-47
2020/12/26 12:15:39;;;;;;;3.08;1.23;;;19.60;44.50;;;;;;4958911;29;20082;-46
2020/12/26 12:18:05;;;;;;;1.80;1.17;;;19.60;44.50;;;;;;4959369;29;20148;-46
2020/12/26 12:20:30;;;;;;;3.13;1.52;;;19.60;44.50;;;;;;4959162;29;20475;-47
2020/12/26 12:22:56;;;;;;;2.78;1.30;;;19.60;44.50;;;;;;4959079;29;20122;-47
2020/12/26 12:25:23;;;;;;;3.03;1.30;;;19.50;44.40;;;;;;4958791;29;20045;-47
2020/12/26 12:27:49;;;;;;;2.00;1.17;;;19.50;44.30;;;;;;4958648;29;20062;-47
2020/12/26 12:30:15;;;;;;;2.70;1.15;;;19.60;44.40;;;;;;4958603;29;20351;-46
2020/12/26 12:32:41;;;;;;;1.20;1.10;;;19.50;44.30;;;;;;4958585;29;20476;-47
2020/12/26 12:35:07;;;;;;;2.15;1.17;;;19.50;44.30;;;;;;4941526;29;20134;-47
2020/12/26 12:37:32;;;;;;;1.30;1.20;;;19.50;44.20;;;;;;4958582;29;20039;-46
2020/12/26 12:39:58;;;;;;;2.08;1.35;;;19.50;44.30;;;;;;4958511;29;20032;-47
2020/12/26 12:42:27;;;;;;;1.42;1.23;;;19.50;44.20;;;;;;4958296;29;20054;-46
2020/12/26 12:44:53;;;;;;;1.70;1.10;;;19.50;44.30;;;;;;4958563;29;20042;-49
2020/12/26 12:47:22;;;;;;;2.45;1.13;;;19.50;44.30;;;;;;4958814;29;20035;-46
2020/12/26 12:49:47;;;;;;;4.40;1.35;;;19.40;44.20;;;;;;4958395;29;20047;-47